Terminal Aerodrome Forecast
Issued by NWS

Home | Current Version | Previous Version | Text Only | Print | Product List | Glossary On
Versions: 1 2 3 4 5 6 7 8 9 10 11 12 13 14 15 16 17 18 19 20 21 22 23 24 25 26 27 28 29 30 31 32 33 34 35 36
000
FTUS44 KHGX 191511 AAA
TAFLBX
TAF AMD
KLBX 191511Z 1915/2012 17015G22KT P6SM SCT025
     FM192300 15014G24KT P6SM SCT015 BKN040
     FM200200 16015KT P6SM BKN008 OVC012=

USA.gov is the U.S. government's official web portal to all federal, state and local government web resources and services.